ΕΜΥ, Εθνική Μετεωρολογική Υπηρεσία - Δελτία Καιρού, Προγνώσεις

ΑΕΡΟΝΑΥΤΙΛΙΑ

GREEK AIRPORTS CODES

LGKC 031550Z 03006KT CAVOK 30/21 Q1010=

EUROPEAN AIRPORTS CODES